createdAt,value
2023-03-07T00:03:03.383Z,3.16
2023-03-07T00:17:15.727Z,3.24
2023-03-07T00:31:27.741Z,3.32
2023-03-07T00:45:39.723Z,3.38
2023-03-07T00:59:50.900Z,3.42
2023-03-07T01:42:28.918Z,3.4
2023-03-07T01:56:40.838Z,3.45
2023-03-07T02:25:04.795Z,3.43
2023-03-07T02:39:13.955Z,3.4
2023-03-07T02:53:22.830Z,3.37
2023-03-07T03:07:33.892Z,3.36
2023-03-07T03:21:45.147Z,3.34
2023-03-07T03:35:56.445Z,3.31
2023-03-07T04:04:18.987Z,3.33
2023-03-07T04:32:40.638Z,3.35
2023-03-07T04:46:52.580Z,3.39
2023-03-07T05:01:04.877Z,3.43
2023-03-07T05:15:15.500Z,3.44
2023-03-07T05:29:27.278Z,3.47
2023-03-07T05:43:39.239Z,3.51
2023-03-07T05:57:48.657Z,3.56
2023-03-07T06:11:59.804Z,3.57
2023-03-07T06:26:10.377Z,3.58
2023-03-07T06:40:22.155Z,3.6
2023-03-07T06:54:33.576Z,3.72
2023-03-07T07:08:45.840Z,3.92
2023-03-07T07:22:59.053Z,4.18
2023-03-07T07:28:31.103Z,4.3
2023-03-07T07:37:11.521Z,4.31
2023-03-07T07:38:06.678Z,4.44
2023-03-07T07:47:39.860Z,4.64
2023-03-07T07:57:14.879Z,4.90
2023-03-07T08:06:47.428Z,5.09
2023-03-07T08:16:23.889Z,5.42
2023-03-07T08:17:27.863Z,5.49
2023-03-07T08:26:59.546Z,5.68
2023-03-07T08:28:02.066Z,5.70
2023-03-07T08:37:37.796Z,5.58
2023-03-07T08:47:10.455Z,5.61
2023-03-07T08:48:12.750Z,5.63
2023-03-07T08:49:15.332Z,5.69
2023-03-07T08:50:17.710Z,5.74
2023-03-07T08:51:21.713Z,5.78
2023-03-07T08:52:25.600Z,5.84
2023-03-07T08:53:29.469Z,5.90
2023-03-07T08:54:31.799Z,5.91
2023-03-07T08:55:35.761Z,5.94
2023-03-07T09:05:06.411Z,5.91
2023-03-07T09:06:10.391Z,5.93
2023-03-07T09:07:14.343Z,5.99
2023-03-07T09:08:16.541Z,6.03
2023-03-07T09:09:22.744Z,6.07
2023-03-07T09:10:24.839Z,6.10
2023-03-07T09:11:27.371Z,6.14
2023-03-07T09:12:31.393Z,6.15
2023-03-07T09:13:40.459Z,6.16
2023-03-07T09:14:39.080Z,6.14
2023-03-07T09:15:43.006Z,6.16
2023-03-07T09:16:45.211Z,6.20
2023-03-07T09:26:18.968Z,6.07
2023-03-07T09:27:21.322Z,6.08
2023-03-07T09:28:25.362Z,6.11
2023-03-07T09:29:27.666Z,6.17
2023-03-07T09:30:30.167Z,6.24
2023-03-07T09:31:34.266Z,6.28
2023-03-07T09:32:36.583Z,6.36
2023-03-07T09:33:39.146Z,6.39
2023-03-07T09:34:43.319Z,6.42
2023-03-07T09:35:47.207Z,6.46
2023-03-07T09:36:51.220Z,6.41
2023-03-07T09:37:55.266Z,6.48
2023-03-07T09:38:59.149Z,6.52
2023-03-07T09:40:01.482Z,6.57
2023-03-07T09:41:05.447Z,6.59
2023-03-07T09:42:07.816Z,6.63
2023-03-07T09:43:11.780Z,6.64
2023-03-07T09:44:15.648Z,6.68
2023-03-07T09:45:17.912Z,6.71
2023-03-07T09:46:21.880Z,6.74
2023-03-07T09:47:25.801Z,6.77
2023-03-07T09:48:29.589Z,6.80
2023-03-07T09:58:01.630Z,6.77
2023-03-07T09:59:11.008Z,6.79
2023-03-07T10:00:06.465Z,6.83
2023-03-07T10:01:08.861Z,6.88
2023-03-07T10:02:11.357Z,6.87
2023-03-07T10:03:13.786Z,6.88
2023-03-07T10:05:18.716Z,6.91
2023-03-07T10:06:22.693Z,6.89
2023-03-07T10:07:24.903Z,6.84
2023-03-07T10:09:32.872Z,6.85
2023-03-07T10:10:36.824Z,6.90
2023-03-07T10:12:43.288Z,6.93
2023-03-07T10:13:45.564Z,6.95
2023-03-07T10:14:49.478Z,6.96
2023-03-07T10:15:53.493Z,7.01
2023-03-07T10:16:57.359Z,7.04
2023-03-07T10:17:59.610Z,7.09
2023-03-07T10:19:02.134Z,7.14
2023-03-07T10:20:04.432Z,7.17
2023-03-07T10:21:06.889Z,7.22
2023-03-07T10:22:11.908Z,7.23
2023-03-07T10:23:14.055Z,7.31
2023-03-07T10:24:16.576Z,7.35
2023-03-07T10:25:20.673Z,7.43
2023-03-07T10:34:51.225Z,7.40
2023-03-07T10:35:53.874Z,7.44
2023-03-07T10:37:08.028Z,7.45
2023-03-07T10:37:58.616Z,7.48
2023-03-07T10:39:00.986Z,7.50
2023-03-07T10:40:05.038Z,7.48
2023-03-07T10:41:07.459Z,7.50
2023-03-07T10:42:09.750Z,7.56
2023-03-07T10:43:12.197Z,7.58
2023-03-07T10:44:14.645Z,7.61
2023-03-07T10:45:17.037Z,7.65
2023-03-07T10:46:25.600Z,7.72
2023-03-07T10:47:23.499Z,7.71
2023-03-07T10:48:25.760Z,7.73
2023-03-07T10:49:29.261Z,7.77
2023-03-07T10:50:31.602Z,7.76
2023-03-07T10:51:33.967Z,7.74
2023-03-07T10:52:36.429Z,7.77
2023-03-07T10:53:38.843Z,7.78
2023-03-07T10:54:42.934Z,7.83
2023-03-07T10:55:46.862Z,7.85
2023-03-07T10:56:49.036Z,7.80
2023-03-07T10:57:51.586Z,7.79
2023-03-07T10:59:56.424Z,7.76
2023-03-07T11:02:01.330Z,7.77
2023-03-07T11:03:03.712Z,7.76
2023-03-07T11:04:06.184Z,7.72
2023-03-07T11:07:14.940Z,7.73
2023-03-07T11:08:19.041Z,7.76
2023-03-07T11:09:21.233Z,7.79
2023-03-07T11:10:23.699Z,7.81
2023-03-07T11:12:30.025Z,7.80
2023-03-07T11:13:34.109Z,7.83
2023-03-07T11:14:36.296Z,7.85
2023-03-07T11:16:42.801Z,7.87
2023-03-07T11:18:48.863Z,7.91
2023-03-07T11:19:51.302Z,7.94
2023-03-07T11:20:53.697Z,7.97
2023-03-07T11:21:56.099Z,7.96
2023-03-07T11:23:00.018Z,8.02
2023-03-07T11:24:02.401Z,8.06
2023-03-07T11:25:06.295Z,8.02
2023-03-07T11:26:10.145Z,8.04
2023-03-07T11:28:16.381Z,8.07
2023-03-07T11:29:20.324Z,8.10
2023-03-07T11:30:24.153Z,8.15
2023-03-07T11:31:26.525Z,8.22
2023-03-07T11:32:30.465Z,8.20
2023-03-07T11:33:34.332Z,8.24
2023-03-07T11:34:36.628Z,8.26
2023-03-07T11:35:38.966Z,8.25
2023-03-07T11:36:41.274Z,8.20
2023-03-07T11:37:43.733Z,8.17
2023-03-07T11:38:46.155Z,8.18
2023-03-07T11:39:48.644Z,8.17
2023-03-07T11:40:50.983Z,8.13
2023-03-07T11:41:53.363Z,8.14
2023-03-07T11:42:55.751Z,8.17
2023-03-07T11:43:58.132Z,8.15
2023-03-07T11:45:02.127Z,8.12
2023-03-07T11:46:04.417Z,8.14
2023-03-07T11:47:08.279Z,8.10
2023-03-07T11:48:10.696Z,8.15
2023-03-07T11:49:12.961Z,8.14
2023-03-07T11:50:15.471Z,8.13
2023-03-07T11:51:17.740Z,8.12
2023-03-07T11:52:20.174Z,8.13
2023-03-07T11:53:24.212Z,8.09
2023-03-07T11:54:26.401Z,8.05
2023-03-07T11:55:28.864Z,8.08
2023-03-07T11:56:32.836Z,8.06
2023-03-07T11:57:35.124Z,8.04
2023-03-07T11:58:37.427Z,8.07
2023-03-07T11:59:39.863Z,8.06
2023-03-07T12:00:43.792Z,8.04
2023-03-07T12:01:46.043Z,8.07
2023-03-07T12:02:48.533Z,8.08
2023-03-07T12:03:52.575Z,8.07
2023-03-07T12:04:56.376Z,8.11
2023-03-07T12:06:00.392Z,8.13
2023-03-07T12:07:04.110Z,8.15
2023-03-07T12:08:06.346Z,8.22
2023-03-07T12:09:08.807Z,8.21
2023-03-07T12:10:11.178Z,8.28
2023-03-07T12:11:13.616Z,8.31
2023-03-07T12:12:17.682Z,8.35
2023-03-07T12:13:19.879Z,8.41
2023-03-07T12:14:22.292Z,8.42
2023-03-07T12:15:24.762Z,8.48
2023-03-07T12:16:28.812Z,8.57
2023-03-07T12:17:31.104Z,8.56
2023-03-07T12:18:33.511Z,8.64
2023-03-07T12:19:37.548Z,8.63
2023-03-07T12:21:43.765Z,8.66
2023-03-07T12:22:46.105Z,8.60
2023-03-07T12:23:50.109Z,8.64
2023-03-07T12:24:52.369Z,8.62
2023-03-07T12:25:54.728Z,8.65
2023-03-07T12:26:57.102Z,8.67
2023-03-07T12:27:59.502Z,8.64
2023-03-07T12:29:03.486Z,8.56
2023-03-07T12:30:05.773Z,8.50
2023-03-07T12:31:08.321Z,8.49
2023-03-07T12:32:10.712Z,8.41
2023-03-07T12:33:13.092Z,8.44
2023-03-07T12:34:15.323Z,8.45
2023-03-07T12:35:19.366Z,8.43
2023-03-07T12:37:25.661Z,8.38
2023-03-07T12:38:29.444Z,8.35
2023-03-07T12:39:31.790Z,8.32
2023-03-07T12:40:34.076Z,8.29
2023-03-07T12:41:36.448Z,8.27
2023-03-07T12:43:42.869Z,8.29
2023-03-07T12:44:46.840Z,8.28
2023-03-07T12:45:50.665Z,8.29
2023-03-07T12:47:58.238Z,8.27
2023-03-07T12:49:02.125Z,8.29
2023-03-07T12:50:05.967Z,8.27
2023-03-07T12:51:09.900Z,8.28
2023-03-07T12:52:13.635Z,8.22
2023-03-07T12:53:15.912Z,8.18
2023-03-07T12:54:19.928Z,8.16
2023-03-07T12:55:22.231Z,8.15
2023-03-07T12:56:24.646Z,8.13
2023-03-07T12:57:28.564Z,8.11
2023-03-07T12:58:30.858Z,8.08
2023-03-07T12:59:33.220Z,8.09
2023-03-07T13:03:47.351Z,8.08
2023-03-07T13:04:49.657Z,8.10
2023-03-07T13:05:53.633Z,8.09
2023-03-07T13:06:57.529Z,8.10
2023-03-07T13:08:01.462Z,8.08
2023-03-07T13:10:07.542Z,8.03
2023-03-07T13:11:11.443Z,7.99
2023-03-07T13:13:17.577Z,7.98
2023-03-07T13:14:21.653Z,7.91
2023-03-07T13:15:23.825Z,7.95
2023-03-07T13:16:26.204Z,7.89
2023-03-07T13:19:33.386Z,7.88
2023-03-07T13:20:37.386Z,7.82
2023-03-07T13:21:41.179Z,7.84
2023-03-07T13:22:43.407Z,7.83
2023-03-07T13:24:49.723Z,7.85
2023-03-07T13:25:52.128Z,7.78
2023-03-07T13:29:00.882Z,7.77
2023-03-07T13:31:05.535Z,7.76
2023-03-07T13:33:11.966Z,7.75
2023-03-07T13:34:14.180Z,7.77
2023-03-07T13:35:16.617Z,7.73
2023-03-07T13:37:21.286Z,7.71
2023-03-07T13:38:23.803Z,7.68
2023-03-07T13:39:26.216Z,7.66
2023-03-07T13:40:28.593Z,7.64
2023-03-07T13:41:31.038Z,7.65
2023-03-07T13:42:33.410Z,7.67
2023-03-07T13:43:35.788Z,7.64
2023-03-07T13:44:39.794Z,7.62
2023-03-07T13:45:42.146Z,7.58
2023-03-07T13:46:44.447Z,7.53
2023-03-07T13:47:46.725Z,7.48
2023-03-07T13:48:49.213Z,7.45
2023-03-07T13:49:51.601Z,7.48
2023-03-07T13:50:55.590Z,7.49
2023-03-07T13:51:59.495Z,7.53
2023-03-07T13:54:05.551Z,7.56
2023-03-07T13:55:07.906Z,7.59
2023-03-07T13:56:11.863Z,7.58
2023-03-07T13:57:14.093Z,7.60
2023-03-07T13:58:18.235Z,7.59
2023-03-07T13:59:22.066Z,7.61
2023-03-07T14:00:24.395Z,7.63
2023-03-07T14:02:30.839Z,7.60
2023-03-07T14:03:33.015Z,7.63
2023-03-07T14:04:40.613Z,7.65
2023-03-07T14:05:39.319Z,7.66
2023-03-07T14:06:43.258Z,7.67
2023-03-07T14:07:47.172Z,7.69
2023-03-07T14:08:49.331Z,7.67
2023-03-07T14:09:51.779Z,7.68
2023-03-07T14:10:54.168Z,7.59
2023-03-07T14:11:56.552Z,7.62
2023-03-07T14:12:58.978Z,7.61
2023-03-07T14:14:01.347Z,7.59
2023-03-07T14:15:03.802Z,7.57
2023-03-07T14:16:07.821Z,7.55
2023-03-07T14:18:14.261Z,7.53
2023-03-07T14:19:16.474Z,7.52
2023-03-07T14:20:18.866Z,7.51
2023-03-07T14:21:22.839Z,7.48
2023-03-07T14:22:25.104Z,7.46
2023-03-07T14:23:27.554Z,7.42
2023-03-07T14:24:31.638Z,7.41
2023-03-07T14:25:33.886Z,7.38
2023-03-07T14:26:37.700Z,7.37
2023-03-07T14:27:41.576Z,7.35
2023-03-07T14:28:43.820Z,7.31
2023-03-07T14:29:47.859Z,7.25
2023-03-07T14:30:50.116Z,7.27
2023-03-07T14:31:54.138Z,7.22
2023-03-07T14:32:56.377Z,7.21
2023-03-07T14:36:10.260Z,7.24
2023-03-07T14:38:15.004Z,7.27
2023-03-07T14:39:18.994Z,7.26
2023-03-07T14:40:21.266Z,7.23
2023-03-07T14:41:25.288Z,7.22
2023-03-07T14:42:29.116Z,7.21
2023-03-07T14:45:39.087Z,7.22
2023-03-07T14:46:41.430Z,7.19
2023-03-07T14:47:45.442Z,7.16
2023-03-07T14:48:47.710Z,7.17
2023-03-07T14:49:51.752Z,7.16
2023-03-07T14:53:00.434Z,7.15
2023-03-07T14:54:02.786Z,7.18
2023-03-07T14:56:07.561Z,7.17
2023-03-07T14:57:09.853Z,7.15
2023-03-07T14:58:12.269Z,7.17
2023-03-07T14:59:26.242Z,7.15
2023-03-07T15:00:18.685Z,7.14
2023-03-07T15:01:21.011Z,7.15
2023-03-07T15:03:28.792Z,7.10
2023-03-07T15:04:32.732Z,7.11
2023-03-07T15:05:36.558Z,7.14
2023-03-07T15:06:40.474Z,7.16
2023-03-07T15:07:45.515Z,7.17
2023-03-07T15:08:48.187Z,7.15
2023-03-07T15:09:52.118Z,7.19
2023-03-07T15:10:54.292Z,7.18
2023-03-07T15:13:02.147Z,7.19
2023-03-07T15:14:04.436Z,7.18
2023-03-07T15:15:06.840Z,7.12
2023-03-07T15:16:10.836Z,7.14
2023-03-07T15:17:14.683Z,7.12
2023-03-07T15:19:19.311Z,7.13
2023-03-07T15:22:31.047Z,7.14
2023-03-07T15:23:34.884Z,7.18
2023-03-07T15:26:41.958Z,7.19
2023-03-07T15:27:44.307Z,7.20
2023-03-07T15:28:48.294Z,7.22
2023-03-07T15:30:55.974Z,7.19
2023-03-07T15:31:59.973Z,7.25
2023-03-07T15:33:02.231Z,7.24
2023-03-07T15:35:08.736Z,7.26
2023-03-07T15:37:16.549Z,7.21
2023-03-07T15:38:18.811Z,7.23
2023-03-07T15:39:21.143Z,7.22
2023-03-07T15:41:27.461Z,7.21
2023-03-07T15:43:33.762Z,7.19
2023-03-07T15:44:37.642Z,7.20
2023-03-07T15:45:41.548Z,7.21
2023-03-07T15:46:43.793Z,7.19
2023-03-07T15:48:49.990Z,7.16
2023-03-07T15:49:52.374Z,7.18
2023-03-07T15:50:54.735Z,7.23
2023-03-07T15:51:57.147Z,7.18
2023-03-07T15:53:00.582Z,7.19
2023-03-07T15:54:04.518Z,7.20
2023-03-07T15:55:06.858Z,7.26
2023-03-07T15:56:09.217Z,7.28
2023-03-07T16:08:29.744Z,7.29
2023-03-07T16:09:47.698Z,7.28
2023-03-07T16:11:54.032Z,7.23
2023-03-07T16:12:56.409Z,7.22
2023-03-07T16:14:00.325Z,7.20
2023-03-07T16:16:08.211Z,7.19
2023-03-07T16:17:12.056Z,7.20
2023-03-07T16:18:15.805Z,7.19
2023-03-07T16:19:19.713Z,7.20
2023-03-07T16:20:21.856Z,7.18
2023-03-07T16:21:25.902Z,7.15
2023-03-07T16:22:28.223Z,7.14
2023-03-07T16:22:43.323Z,7.04
2023-03-07T16:27:44.827Z,7.02
2023-03-07T16:29:52.061Z,6.93
2023-03-07T16:30:55.873Z,6.90
2023-03-07T16:31:58.116Z,6.91
2023-03-07T16:33:00.493Z,6.86
2023-03-07T16:34:02.924Z,6.85
2023-03-07T16:35:05.329Z,6.83
2023-03-07T16:36:07.722Z,6.79
2023-03-07T16:36:53.713Z,6.74
2023-03-07T16:37:10.128Z,6.74
2023-03-07T16:38:12.548Z,6.74
2023-03-07T16:48:47.860Z,6.39
2023-03-07T16:49:51.748Z,6.41
2023-03-07T16:50:55.649Z,6.45
2023-03-07T16:52:05.468Z,6.45
2023-03-07T17:05:17.196Z,6.28
2023-03-07T17:16:21.805Z,6.25
2023-03-07T17:19:30.261Z,6.17
2023-03-07T17:33:39.892Z,6.1
2023-03-07T17:47:51.886Z,6.09
2023-03-07T18:02:02.454Z,6.13
2023-03-07T18:16:14.456Z,6.12
2023-03-07T18:30:23.160Z,6.07
2023-03-07T18:44:35.653Z,5.96
2023-03-07T18:58:46.384Z,5.92
2023-03-07T19:12:56.608Z,5.64
2023-03-07T19:27:05.178Z,5.4
2023-03-07T19:41:17.787Z,5.59
2023-03-07T19:55:27.864Z,5.54
2023-03-07T20:09:36.532Z,5.62
2023-03-07T20:23:48.005Z,5.76
2023-03-07T20:38:05.140Z,5.83
2023-03-07T20:52:09.185Z,5.9
2023-03-07T21:06:20.015Z,5.92
2023-03-07T21:20:32.385Z,5.95
2023-03-07T21:34:41.709Z,5.94
2023-03-07T21:48:52.301Z,5.95
2023-03-07T22:03:03.408Z,5.96
2023-03-07T22:13:52.484Z,5.61
2023-03-07T22:17:12.437Z,5.48
2023-03-07T22:23:24.045Z,5.23
2023-03-07T22:31:24.379Z,5.01
2023-03-07T22:32:57.645Z,4.84
2023-03-07T22:42:32.641Z,4.68
2023-03-07T22:52:06.763Z,4.58
2023-03-07T22:59:45.749Z,4.54
2023-03-07T23:01:38.435Z,4.45
2023-03-07T23:11:12.165Z,4.32
2023-03-07T23:20:47.665Z,4.18
2023-03-07T23:28:02.148Z,4.17
2023-03-07T23:30:21.163Z,4.13
2023-03-07T23:39:54.675Z,4.09
2023-03-07T23:49:28.362Z,4.06
2023-03-07T23:59:01.928Z,4.05
